sensor_id;sensor_type;location;lat;lon;timestamp;pressure;altitude;pressure_sealevel;temperature
53412;BMP280;39307;52.870;13.660;2022-12-18T00:01:26;102746.41;;;-4.03
53412;BMP280;39307;52.870;13.660;2022-12-18T00:03:54;102752.31;;;-4.01
53412;BMP280;39307;52.870;13.660;2022-12-18T00:06:21;102749.53;;;-3.93
53412;BMP280;39307;52.870;13.660;2022-12-18T00:08:47;102750.38;;;-3.93
53412;BMP280;39307;52.870;13.660;2022-12-18T00:11:16;102754.66;;;-3.93
53412;BMP280;39307;52.870;13.660;2022-12-18T00:13:42;102753.84;;;-3.95
53412;BMP280;39307;52.870;13.660;2022-12-18T00:16:13;102748.72;;;-3.94
53412;BMP280;39307;52.870;13.660;2022-12-18T00:18:39;102762.25;;;-3.90
53412;BMP280;39307;52.870;13.660;2022-12-18T00:21:07;102759.06;;;-3.98
53412;BMP280;39307;52.870;13.660;2022-12-18T00:23:35;102759.94;;;-3.99
53412;BMP280;39307;52.870;13.660;2022-12-18T00:26:02;102758.06;;;-3.93
53412;BMP280;39307;52.870;13.660;2022-12-18T00:28:28;102752.13;;;-3.95
53412;BMP280;39307;52.870;13.660;2022-12-18T00:31:21;102760.75;;;-3.97
53412;BMP280;39307;52.870;13.660;2022-12-18T00:33:48;102757.31;;;-3.96
53412;BMP280;39307;52.870;13.660;2022-12-18T00:36:19;102756.47;;;-3.97
53412;BMP280;39307;52.870;13.660;2022-12-18T00:38:46;102760.47;;;-3.88
53412;BMP280;39307;52.870;13.660;2022-12-18T00:41:14;102763.97;;;-3.91
53412;BMP280;39307;52.870;13.660;2022-12-18T00:43:40;102767.47;;;-3.93
53412;BMP280;39307;52.870;13.660;2022-12-18T00:46:06;102775.22;;;-3.96
53412;BMP280;39307;52.870;13.660;2022-12-18T00:48:33;102769.44;;;-4.03
53412;BMP280;39307;52.870;13.660;2022-12-18T00:50:59;102772.91;;;-4.05
53412;BMP280;39307;52.870;13.660;2022-12-18T00:53:25;102765.34;;;-4.09
53412;BMP280;39307;52.870;13.660;2022-12-18T00:55:51;102779.03;;;-4.10
53412;BMP280;39307;52.870;13.660;2022-12-18T00:58:17;102776.16;;;-4.29
53412;BMP280;39307;52.870;13.660;2022-12-18T01:00:43;102772.16;;;-4.38
53412;BMP280;39307;52.870;13.660;2022-12-18T01:03:13;102779.00;;;-4.39
53412;BMP280;39307;52.870;13.660;2022-12-18T01:05:41;102779.44;;;-4.24
53412;BMP280;39307;52.870;13.660;2022-12-18T01:08:07;102782.00;;;-4.24
53412;BMP280;39307;52.870;13.660;2022-12-18T01:10:33;102787.69;;;-4.14
53412;BMP280;39307;52.870;13.660;2022-12-18T01:12:59;102784.50;;;-4.22
53412;BMP280;39307;52.870;13.660;2022-12-18T01:15:26;102789.75;;;-4.27
53412;BMP280;39307;52.870;13.660;2022-12-18T01:17:52;102785.38;;;-4.23
53412;BMP280;39307;52.870;13.660;2022-12-18T01:20:19;102782.94;;;-4.28
53412;BMP280;39307;52.870;13.660;2022-12-18T01:22:45;102794.06;;;-4.29
53412;BMP280;39307;52.870;13.660;2022-12-18T01:25:11;102795.72;;;-4.28
53412;BMP280;39307;52.870;13.660;2022-12-18T01:27:37;102795.94;;;-4.35
53412;BMP280;39307;52.870;13.660;2022-12-18T01:30:04;102800.41;;;-4.43
53412;BMP280;39307;52.870;13.660;2022-12-18T01:32:31;102809.78;;;-4.43
53412;BMP280;39307;52.870;13.660;2022-12-18T01:34:57;102804.75;;;-4.45
53412;BMP280;39307;52.870;13.660;2022-12-18T01:37:24;102802.34;;;-4.51
53412;BMP280;39307;52.870;13.660;2022-12-18T01:39:50;102806.63;;;-4.51
53412;BMP280;39307;52.870;13.660;2022-12-18T01:42:16;102804.06;;;-4.51
53412;BMP280;39307;52.870;13.660;2022-12-18T01:45:20;102814.53;;;-4.61
53412;BMP280;39307;52.870;13.660;2022-12-18T01:47:54;102812.88;;;-4.64
53412;BMP280;39307;52.870;13.660;2022-12-18T01:50:30;102817.38;;;-4.72
53412;BMP280;39307;52.870;13.660;2022-12-18T01:53:07;102816.94;;;-4.56
53412;BMP280;39307;52.870;13.660;2022-12-18T01:55:43;102807.44;;;-4.51
53412;BMP280;39307;52.870;13.660;2022-12-18T01:58:11;102814.28;;;-4.51
53412;BMP280;39307;52.870;13.660;2022-12-18T02:00:38;102808.41;;;-4.55
53412;BMP280;39307;52.870;13.660;2022-12-18T02:03:04;102807.41;;;-4.49
53412;BMP280;39307;52.870;13.660;2022-12-18T02:08:42;102801.41;;;-4.48
53412;BMP280;39307;52.870;13.660;2022-12-18T02:11:26;102805.72;;;-4.50
53412;BMP280;39307;52.870;13.660;2022-12-18T02:14:17;102816.00;;;-4.52
53412;BMP280;39307;52.870;13.660;2022-12-18T02:20:16;102825.28;;;-4.49
53412;BMP280;39307;52.870;13.660;2022-12-18T02:28:34;102828.88;;;-4.55
53412;BMP280;39307;52.870;13.660;2022-12-18T02:31:05;102820.47;;;-4.60
53412;BMP280;39307;52.870;13.660;2022-12-18T02:33:35;102825.38;;;-4.52
53412;BMP280;39307;52.870;13.660;2022-12-18T02:36:03;102819.34;;;-4.50
53412;BMP280;39307;52.870;13.660;2022-12-18T02:38:30;102818.44;;;-4.47
53412;BMP280;39307;52.870;13.660;2022-12-18T02:40:57;102823.69;;;-4.53
53412;BMP280;39307;52.870;13.660;2022-12-18T02:43:24;102829.03;;;-4.60
53412;BMP280;39307;52.870;13.660;2022-12-18T02:46:00;102834.16;;;-4.62
53412;BMP280;39307;52.870;13.660;2022-12-18T02:48:46;102842.34;;;-4.50
53412;BMP280;39307;52.870;13.660;2022-12-18T02:51:18;102836.63;;;-4.59
53412;BMP280;39307;52.870;13.660;2022-12-18T02:53:57;102840.94;;;-4.61
53412;BMP280;39307;52.870;13.660;2022-12-18T02:56:37;102838.31;;;-4.58
53412;BMP280;39307;52.870;13.660;2022-12-18T02:59:19;102839.31;;;-4.63
53412;BMP280;39307;52.870;13.660;2022-12-18T03:04:54;102847.56;;;-4.87
53412;BMP280;39307;52.870;13.660;2022-12-18T03:07:37;102839.03;;;-4.86
53412;BMP280;39307;52.870;13.660;2022-12-18T03:10:07;102842.53;;;-4.90
53412;BMP280;39307;52.870;13.660;2022-12-18T03:12:44;102838.06;;;-4.82
53412;BMP280;39307;52.870;13.660;2022-12-18T03:15:27;102841.28;;;-4.74
53412;BMP280;39307;52.870;13.660;2022-12-18T03:18:11;102839.47;;;-4.69
53412;BMP280;39307;52.870;13.660;2022-12-18T03:20:42;102847.97;;;-4.69
53412;BMP280;39307;52.870;13.660;2022-12-18T03:23:17;102840.31;;;-4.70
53412;BMP280;39307;52.870;13.660;2022-12-18T03:25:46;102845.72;;;-4.81
53412;BMP280;39307;52.870;13.660;2022-12-18T03:28:17;102846.53;;;-4.80
53412;BMP280;39307;52.870;13.660;2022-12-18T03:30:47;102849.22;;;-4.85
53412;BMP280;39307;52.870;13.660;2022-12-18T03:33:19;102850.06;;;-4.86
53412;BMP280;39307;52.870;13.660;2022-12-18T03:35:50;102850.91;;;-4.84
53412;BMP280;39307;52.870;13.660;2022-12-18T03:38:16;102865.53;;;-4.90
53412;BMP280;39307;52.870;13.660;2022-12-18T03:46:08;102849.31;;;-4.89
53412;BMP280;39307;52.870;13.660;2022-12-18T03:48:44;102848.69;;;-4.97
53412;BMP280;39307;52.870;13.660;2022-12-18T03:54:16;102854.91;;;-5.10
53412;BMP280;39307;52.870;13.660;2022-12-18T03:56:47;102859.09;;;-5.06
53412;BMP280;39307;52.870;13.660;2022-12-18T03:59:15;102849.53;;;-4.98
53412;BMP280;39307;52.870;13.660;2022-12-18T04:01:47;102861.66;;;-5.06
53412;BMP280;39307;52.870;13.660;2022-12-18T04:04:14;102852.28;;;-5.07
53412;BMP280;39307;52.870;13.660;2022-12-18T04:06:42;102862.38;;;-5.01
53412;BMP280;39307;52.870;13.660;2022-12-18T04:09:09;102858.16;;;-5.02
53412;BMP280;39307;52.870;13.660;2022-12-18T04:11:36;102857.94;;;-4.93
53412;BMP280;39307;52.870;13.660;2022-12-18T04:14:01;102858.97;;;-5.01
53412;BMP280;39307;52.870;13.660;2022-12-18T04:16:27;102873.47;;;-5.02
53412;BMP280;39307;52.870;13.660;2022-12-18T04:18:54;102871.19;;;-5.12
53412;BMP280;39307;52.870;13.660;2022-12-18T04:21:20;102876.34;;;-5.15
53412;BMP280;39307;52.870;13.660;2022-12-18T04:23:46;102865.19;;;-5.13
53412;BMP280;39307;52.870;13.660;2022-12-18T04:26:13;102871.19;;;-5.14
53412;BMP280;39307;52.870;13.660;2022-12-18T04:28:39;102869.53;;;-5.15
53412;BMP280;39307;52.870;13.660;2022-12-18T04:31:05;102869.28;;;-5.04
53412;BMP280;39307;52.870;13.660;2022-12-18T04:33:32;102868.50;;;-5.08
53412;BMP280;39307;52.870;13.660;2022-12-18T04:35:58;102857.38;;;-5.05
53412;BMP280;39307;52.870;13.660;2022-12-18T04:38:24;102856.75;;;-5.15
53412;BMP280;39307;52.870;13.660;2022-12-18T04:40:51;102853.44;;;-5.18
53412;BMP280;39307;52.870;13.660;2022-12-18T04:43:17;102851.03;;;-5.25
53412;BMP280;39307;52.870;13.660;2022-12-18T04:45:43;102865.53;;;-5.26
53412;BMP280;39307;52.870;13.660;2022-12-18T04:48:10;102867.03;;;-5.18
53412;BMP280;39307;52.870;13.660;2022-12-18T04:50:36;102868.72;;;-5.17
53412;BMP280;39307;52.870;13.660;2022-12-18T04:53:02;102872.16;;;-5.18
53412;BMP280;39307;52.870;13.660;2022-12-18T04:55:29;102887.63;;;-5.25
53412;BMP280;39307;52.870;13.660;2022-12-18T04:57:55;102882.63;;;-5.29
53412;BMP280;39307;52.870;13.660;2022-12-18T05:00:22;102887.09;;;-5.39
53412;BMP280;39307;52.870;13.660;2022-12-18T05:02:48;102892.13;;;-5.36
53412;BMP280;39307;52.870;13.660;2022-12-18T05:05:14;102899.72;;;-5.33
53412;BMP280;39307;52.870;13.660;2022-12-18T05:07:41;102900.75;;;-5.41
53412;BMP280;39307;52.870;13.660;2022-12-18T05:10:07;102890.41;;;-5.35
53412;BMP280;39307;52.870;13.660;2022-12-18T05:12:34;102890.59;;;-5.44
53412;BMP280;39307;52.870;13.660;2022-12-18T05:15:00;102897.50;;;-5.47
53412;BMP280;39307;52.870;13.660;2022-12-18T05:17:26;102912.63;;;-5.39
53412;BMP280;39307;52.870;13.660;2022-12-18T05:19:52;102902.22;;;-5.31
53412;BMP280;39307;52.870;13.660;2022-12-18T05:22:18;102906.63;;;-5.38
53412;BMP280;39307;52.870;13.660;2022-12-18T05:24:44;102915.06;;;-5.34
53412;BMP280;39307;52.870;13.660;2022-12-18T05:27:10;102917.53;;;-5.30
53412;BMP280;39307;52.870;13.660;2022-12-18T05:29:37;102929.41;;;-5.27
53412;BMP280;39307;52.870;13.660;2022-12-18T05:32:03;102916.34;;;-5.16
53412;BMP280;39307;52.870;13.660;2022-12-18T05:34:29;102919.91;;;-5.22
53412;BMP280;39307;52.870;13.660;2022-12-18T05:36:55;102927.94;;;-5.40
53412;BMP280;39307;52.870;13.660;2022-12-18T05:39:21;102939.03;;;-5.40
53412;BMP280;39307;52.870;13.660;2022-12-18T05:41:47;102938.09;;;-5.36
53412;BMP280;39307;52.870;13.660;2022-12-18T05:44:14;102933.75;;;-5.32
53412;BMP280;39307;52.870;13.660;2022-12-18T05:46:41;102934.69;;;-5.36
53412;BMP280;39307;52.870;13.660;2022-12-18T05:49:07;102933.16;;;-5.45
53412;BMP280;39307;52.870;13.660;2022-12-18T05:51:34;102938.03;;;-5.33
53412;BMP280;39307;52.870;13.660;2022-12-18T05:54:00;102938.81;;;-5.29
53412;BMP280;39307;52.870;13.660;2022-12-18T05:56:26;102946.59;;;-5.35
53412;BMP280;39307;52.870;13.660;2022-12-18T05:58:53;102945.03;;;-5.44
53412;BMP280;39307;52.870;13.660;2022-12-18T06:01:23;102942.59;;;-5.48
53412;BMP280;39307;52.870;13.660;2022-12-18T06:03:49;102945.00;;;-5.41
53412;BMP280;39307;52.870;13.660;2022-12-18T06:06:22;102946.06;;;-5.52
53412;BMP280;39307;52.870;13.660;2022-12-18T06:08:48;102950.09;;;-5.39
53412;BMP280;39307;52.870;13.660;2022-12-18T06:11:20;102948.44;;;-5.43
53412;BMP280;39307;52.870;13.660;2022-12-18T06:13:49;102942.63;;;-5.49
53412;BMP280;39307;52.870;13.660;2022-12-18T06:16:16;102958.00;;;-5.52
53412;BMP280;39307;52.870;13.660;2022-12-18T06:18:42;102945.16;;;-5.48
53412;BMP280;39307;52.870;13.660;2022-12-18T06:21:08;102951.75;;;-5.38
53412;BMP280;39307;52.870;13.660;2022-12-18T06:23:34;102951.84;;;-5.43
53412;BMP280;39307;52.870;13.660;2022-12-18T06:26:05;102945.16;;;-5.48
53412;BMP280;39307;52.870;13.660;2022-12-18T06:28:31;102951.84;;;-5.43
53412;BMP280;39307;52.870;13.660;2022-12-18T06:30:57;102957.69;;;-5.38
53412;BMP280;39307;52.870;13.660;2022-12-18T06:33:27;102970.63;;;-5.45
53412;BMP280;39307;52.870;13.660;2022-12-18T06:35:53;102979.06;;;-5.43
53412;BMP280;39307;52.870;13.660;2022-12-18T06:38:20;102987.78;;;-5.51
53412;BMP280;39307;52.870;13.660;2022-12-18T06:40:46;102998.88;;;-5.54
53412;BMP280;39307;52.870;13.660;2022-12-18T06:43:12;103013.31;;;-5.53
53412;BMP280;39307;52.870;13.660;2022-12-18T06:45:38;103014.97;;;-5.50
53412;BMP280;39307;52.870;13.660;2022-12-18T06:48:04;103002.16;;;-5.47
53412;BMP280;39307;52.870;13.660;2022-12-18T06:50:31;102998.81;;;-5.51
53412;BMP280;39307;52.870;13.660;2022-12-18T06:52:57;102999.72;;;-5.55
53412;BMP280;39307;52.870;13.660;2022-12-18T06:55:23;102999.78;;;-5.56
53412;BMP280;39307;52.870;13.660;2022-12-18T06:57:49;103011.59;;;-5.52
53412;BMP280;39307;52.870;13.660;2022-12-18T07:00:16;103010.81;;;-5.56
53412;BMP280;39307;52.870;13.660;2022-12-18T07:02:42;103006.72;;;-5.64
53412;BMP280;39307;52.870;13.660;2022-12-18T07:05:08;103009.41;;;-5.70
53412;BMP280;39307;52.870;13.660;2022-12-18T07:07:35;102996.69;;;-5.72
53412;BMP280;39307;52.870;13.660;2022-12-18T07:10:01;102992.53;;;-5.75
53412;BMP280;39307;52.870;13.660;2022-12-18T07:12:27;102995.81;;;-5.71
53412;BMP280;39307;52.870;13.660;2022-12-18T07:14:53;102997.44;;;-5.67
53412;BMP280;39307;52.870;13.660;2022-12-18T07:17:20;103002.41;;;-5.61
53412;BMP280;39307;52.870;13.660;2022-12-18T07:19:46;103004.16;;;-5.63
53412;BMP280;39307;52.870;13.660;2022-12-18T07:22:12;103011.88;;;-5.67
53412;BMP280;39307;52.870;13.660;2022-12-18T07:24:38;103012.84;;;-5.71
53412;BMP280;39307;52.870;13.660;2022-12-18T07:27:04;103012.88;;;-5.73
53412;BMP280;39307;52.870;13.660;2022-12-18T07:29:31;103023.94;;;-5.74
53412;BMP280;39307;52.870;13.660;2022-12-18T07:31:57;103022.94;;;-5.67
53412;BMP280;39307;52.870;13.660;2022-12-18T07:34:23;103024.69;;;-5.69
53412;BMP280;39307;52.870;13.660;2022-12-18T07:36:49;103032.38;;;-5.70
53412;BMP280;39307;52.870;13.660;2022-12-18T07:39:15;103034.25;;;-5.79
53412;BMP280;39307;52.870;13.660;2022-12-18T07:41:42;103041.75;;;-5.71
53412;BMP280;39307;52.870;13.660;2022-12-18T07:44:10;103038.22;;;-5.64
53412;BMP280;39307;52.870;13.660;2022-12-18T07:46:36;103034.78;;;-5.63
53412;BMP280;39307;52.870;13.660;2022-12-18T07:49:02;103033.13;;;-5.65
53412;BMP280;39307;52.870;13.660;2022-12-18T07:51:28;103023.19;;;-5.80
53412;BMP280;39307;52.870;13.660;2022-12-18T07:53:55;103031.38;;;-5.63
53412;BMP280;39307;52.870;13.660;2022-12-18T07:56:22;103035.47;;;-5.55
53412;BMP280;39307;52.870;13.660;2022-12-18T07:58:48;103031.22;;;-5.54
53412;BMP280;39307;52.870;13.660;2022-12-18T08:01:14;103026.22;;;-5.60
53412;BMP280;39307;52.870;13.660;2022-12-18T08:03:41;103022.97;;;-5.68
53412;BMP280;39307;52.870;13.660;2022-12-18T08:06:09;103017.91;;;-5.70
53412;BMP280;39307;52.870;13.660;2022-12-18T08:08:35;103029.66;;;-5.63
53412;BMP280;39307;52.870;13.660;2022-12-18T08:11:02;103028.88;;;-5.66
53412;BMP280;39307;52.870;13.660;2022-12-18T08:13:28;103031.34;;;-5.62
53412;BMP280;39307;52.870;13.660;2022-12-18T08:15:59;103022.91;;;-5.64
53412;BMP280;39307;52.870;13.660;2022-12-18T08:18:25;103031.41;;;-5.65
53412;BMP280;39307;52.870;13.660;2022-12-18T08:20:52;103030.59;;;-5.67
53412;BMP280;39307;52.870;13.660;2022-12-18T08:23:18;103033.09;;;-5.64
53412;BMP280;39307;52.870;13.660;2022-12-18T08:25:44;103027.75;;;-5.52
53412;BMP280;39307;52.870;13.660;2022-12-18T08:28:11;103038.66;;;-5.43
53412;BMP280;39307;52.870;13.660;2022-12-18T08:30:37;103031.63;;;-5.32
53412;BMP280;39307;52.870;13.660;2022-12-18T08:33:04;103047.09;;;-5.39
53412;BMP280;39307;52.870;13.660;2022-12-18T08:35:35;103047.16;;;-5.44
53412;BMP280;39307;52.870;13.660;2022-12-18T08:38:01;103042.09;;;-5.45
53412;BMP280;39307;52.870;13.660;2022-12-18T08:40:27;103039.28;;;-5.32
53412;BMP280;39307;52.870;13.660;2022-12-18T08:42:53;103046.28;;;-5.41
53412;BMP280;39307;52.870;13.660;2022-12-18T08:45:20;103049.84;;;-5.49
53412;BMP280;39307;52.870;13.660;2022-12-18T08:47:46;103062.69;;;-5.54
53412;BMP280;39307;52.870;13.660;2022-12-18T08:50:12;103053.25;;;-5.50
53412;BMP280;39307;52.870;13.660;2022-12-18T08:52:38;103054.03;;;-5.46
53412;BMP280;39307;52.870;13.660;2022-12-18T08:55:05;103053.81;;;-5.35
53412;BMP280;39307;52.870;13.660;2022-12-18T08:57:31;103063.09;;;-5.31
53412;BMP280;39307;52.870;13.660;2022-12-18T08:59:57;103068.88;;;-5.22
53412;BMP280;39307;52.870;13.660;2022-12-18T09:02:24;103067.91;;;-5.17
53412;BMP280;39307;52.870;13.660;2022-12-18T09:04:50;103061.97;;;-5.17
53412;BMP280;39307;52.870;13.660;2022-12-18T09:07:16;103062.00;;;-5.18
53412;BMP280;39307;52.870;13.660;2022-12-18T09:09:42;103064.75;;;-5.27
53412;BMP280;39307;52.870;13.660;2022-12-18T09:12:08;103058.66;;;-5.20
53412;BMP280;39307;52.870;13.660;2022-12-18T09:14:35;103061.03;;;-5.12
53412;BMP280;39307;52.870;13.660;2022-12-18T09:17:02;103060.03;;;-5.05
53412;BMP280;39307;52.870;13.660;2022-12-18T09:19:28;103074.47;;;-5.04
53412;BMP280;39307;52.870;13.660;2022-12-18T09:21:54;103083.13;;;-5.11
53412;BMP280;39307;52.870;13.660;2022-12-18T09:24:20;103083.25;;;-5.15
53412;BMP280;39307;52.870;13.660;2022-12-18T09:26:46;103076.44;;;-5.16
53412;BMP280;39307;52.870;13.660;2022-12-18T09:29:13;103069.53;;;-5.11
53412;BMP280;39307;52.870;13.660;2022-12-18T09:31:39;103065.28;;;-5.12
53412;BMP280;39307;52.870;13.660;2022-12-18T09:34:06;103058.19;;;-4.98
53412;BMP280;39307;52.870;13.660;2022-12-18T09:36:32;103058.31;;;-5.04
53412;BMP280;39307;52.870;13.660;2022-12-18T09:38:58;103069.47;;;-5.08
53412;BMP280;39307;52.870;13.660;2022-12-18T09:44:22;103080.47;;;-5.05
53412;BMP280;39307;52.870;13.660;2022-12-18T09:49:23;103055.56;;;-4.94
53412;BMP280;39307;52.870;13.660;2022-12-18T09:51:58;103071.81;;;-4.98
53412;BMP280;39307;52.870;13.660;2022-12-18T09:54:32;103074.41;;;-5.01
53412;BMP280;39307;52.870;13.660;2022-12-18T09:57:00;103064.13;;;-4.98
53412;BMP280;39307;52.870;13.660;2022-12-18T09:59:37;103069.53;;;-5.11
53412;BMP280;39307;52.870;13.660;2022-12-18T10:02:24;103062.63;;;-5.06
53412;BMP280;39307;52.870;13.660;2022-12-18T10:04:58;103066.03;;;-5.06
53412;BMP280;39307;52.870;13.660;2022-12-18T10:10:38;103045.16;;;-4.87
53412;BMP280;39307;52.870;13.660;2022-12-18T10:13:09;103043.56;;;-4.90
53412;BMP280;39307;52.870;13.660;2022-12-18T10:15:53;103041.72;;;-4.84
53412;BMP280;39307;52.870;13.660;2022-12-18T10:21:24;103032.97;;;-4.73
53412;BMP280;39307;52.870;13.660;2022-12-18T10:26:35;103018.78;;;-4.87
53412;BMP280;39307;52.870;13.660;2022-12-18T10:29:03;103011.91;;;-4.85
53412;BMP280;39307;52.870;13.660;2022-12-18T10:31:30;103010.94;;;-4.80
53412;BMP280;39307;52.870;13.660;2022-12-18T10:33:56;103005.19;;;-4.89
53412;BMP280;39307;52.870;13.660;2022-12-18T10:36:24;102993.88;;;-4.79
53412;BMP280;39307;52.870;13.660;2022-12-18T10:38:50;102994.56;;;-4.70
53412;BMP280;39307;52.870;13.660;2022-12-18T10:43:45;102991.94;;;-4.68
53412;BMP280;39307;52.870;13.660;2022-12-18T10:46:15;102986.72;;;-4.64
53412;BMP280;39307;52.870;13.660;2022-12-18T10:48:58;102982.97;;;-4.50
53412;BMP280;39307;52.870;13.660;2022-12-18T10:51:29;102989.56;;;-4.40
53412;BMP280;39307;52.870;13.660;2022-12-18T10:54:02;102989.41;;;-4.34
53412;BMP280;39307;52.870;13.660;2022-12-18T10:56:31;102989.25;;;-4.28
53412;BMP280;39307;52.870;13.660;2022-12-18T10:59:00;102978.97;;;-4.25
53412;BMP280;39307;52.870;13.660;2022-12-18T11:01:27;102979.78;;;-4.23
53412;BMP280;39307;52.870;13.660;2022-12-18T11:06:24;102994.31;;;-4.25
53412;BMP280;39307;52.870;13.660;2022-12-18T11:09:02;102987.47;;;-4.25
53412;BMP280;39307;52.870;13.660;2022-12-18T11:11:29;102981.38;;;-4.19
53412;BMP280;39307;52.870;13.660;2022-12-18T11:14:01;102975.53;;;-4.24
53412;BMP280;39307;52.870;13.660;2022-12-18T11:16:30;102978.34;;;-4.34
53412;BMP280;39307;52.870;13.660;2022-12-18T11:22:21;102965.31;;;-4.24
53412;BMP280;39307;52.870;13.660;2022-12-18T11:27:52;102965.94;;;-4.15
53412;BMP280;39307;52.870;13.660;2022-12-18T11:30:26;102969.19;;;-4.08
53412;BMP280;39307;52.870;13.660;2022-12-18T11:33:09;102975.88;;;-4.04
53412;BMP280;39307;52.870;13.660;2022-12-18T11:35:55;102974.22;;;-4.07
53412;BMP280;39307;52.870;13.660;2022-12-18T11:38:35;102970.91;;;-4.09
53412;BMP280;39307;52.870;13.660;2022-12-18T11:44:07;102973.16;;;-3.99
53412;BMP280;39307;52.870;13.660;2022-12-18T11:46:43;102977.16;;;-3.87
53412;BMP280;39307;52.870;13.660;2022-12-18T11:49:24;102990.84;;;-3.90
53412;BMP280;39307;52.870;13.660;2022-12-18T11:51:58;102983.91;;;-3.85
53412;BMP280;39307;52.870;13.660;2022-12-18T11:54:25;102982.03;;;-3.78
53412;BMP280;39307;52.870;13.660;2022-12-18T11:56:58;102984.44;;;-3.73
53412;BMP280;39307;52.870;13.660;2022-12-18T11:59:55;102984.31;;;-3.68
53412;BMP280;39307;52.870;13.660;2022-12-18T12:02:46;102994.47;;;-3.65
53412;BMP280;39307;52.870;13.660;2022-12-18T12:13:49;102990.16;;;-3.65
53412;BMP280;39307;52.870;13.660;2022-12-18T12:16:31;102999.41;;;-3.59
53412;BMP280;39307;52.870;13.660;2022-12-18T12:27:03;103012.63;;;-3.43
53412;BMP280;39307;52.870;13.660;2022-12-18T12:32:33;103012.97;;;-3.56
53412;BMP280;39307;52.870;13.660;2022-12-18T12:35:33;103015.69;;;-3.60
53412;BMP280;39307;52.870;13.660;2022-12-18T12:40:59;103021.66;;;-3.61
53412;BMP280;39307;52.870;13.660;2022-12-18T12:43:44;103017.28;;;-3.58
53412;BMP280;39307;52.870;13.660;2022-12-18T12:46:16;103022.34;;;-3.55
53412;BMP280;39307;52.870;13.660;2022-12-18T12:48:50;103009.00;;;-3.36
53412;BMP280;39307;52.870;13.660;2022-12-18T12:51:21;103017.84;;;-3.45
53412;BMP280;39307;52.870;13.660;2022-12-18T12:53:50;103001.75;;;-3.52
53412;BMP280;39307;52.870;13.660;2022-12-18T12:56:19;103006.22;;;-3.58
53412;BMP280;39307;52.870;13.660;2022-12-18T12:59:04;102996.78;;;-3.56
53412;BMP280;39307;52.870;13.660;2022-12-18T13:01:52;102994.06;;;-3.50
53412;BMP280;39307;52.870;13.660;2022-12-18T13:04:40;102997.44;;;-3.50
53412;BMP280;39307;52.870;13.660;2022-12-18T13:07:37;102990.59;;;-3.49
53412;BMP280;39307;52.870;13.660;2022-12-18T13:15:29;102974.47;;;-3.51
53412;BMP280;39307;52.870;13.660;2022-12-18T13:20:39;102956.44;;;-3.48
53412;BMP280;39307;52.870;13.660;2022-12-18T13:31:10;102959.69;;;-3.42
53412;BMP280;39307;52.870;13.660;2022-12-18T13:33:46;102969.69;;;-3.35
53412;BMP280;39307;52.870;13.660;2022-12-18T13:38:41;102972.44;;;-3.41
53412;BMP280;39307;52.870;13.660;2022-12-18T13:41:26;102977.47;;;-3.38
53412;BMP280;39307;52.870;13.660;2022-12-18T13:43:54;102968.38;;;-3.47
53412;BMP280;39307;52.870;13.660;2022-12-18T13:46:44;102974.00;;;-3.35
53412;BMP280;39307;52.870;13.660;2022-12-18T13:51:43;102961.19;;;-3.37
53412;BMP280;39307;52.870;13.660;2022-12-18T13:54:38;102952.16;;;-3.48
53412;BMP280;39307;52.870;13.660;2022-12-18T13:57:25;102952.28;;;-3.52
53412;BMP280;39307;52.870;13.660;2022-12-18T13:59:52;102955.00;;;-3.58
53412;BMP280;39307;52.870;13.660;2022-12-18T14:02:26;102953.25;;;-3.56
53412;BMP280;39307;52.870;13.660;2022-12-18T14:04:53;102937.81;;;-3.53
53412;BMP280;39307;52.870;13.660;2022-12-18T14:07:27;102929.63;;;-3.37
53412;BMP280;39307;52.870;13.660;2022-12-18T14:10:01;102935.19;;;-3.52
53412;BMP280;39307;52.870;13.660;2022-12-18T14:12:31;102924.94;;;-3.52
53412;BMP280;39307;52.870;13.660;2022-12-18T14:14:58;102928.28;;;-3.48
53412;BMP280;39307;52.870;13.660;2022-12-18T14:17:24;102919.34;;;-3.36
53412;BMP280;39307;52.870;13.660;2022-12-18T14:19:51;102929.13;;;-3.48
53412;BMP280;39307;52.870;13.660;2022-12-18T14:22:20;102926.13;;;-3.63
53412;BMP280;39307;52.870;13.660;2022-12-18T14:24:47;102932.28;;;-3.70
53412;BMP280;39307;52.870;13.660;2022-12-18T14:27:31;102914.44;;;-3.73
53412;BMP280;39307;52.870;13.660;2022-12-18T14:29:57;102914.53;;;-3.76
53412;BMP280;39307;52.870;13.660;2022-12-18T14:32:23;102918.22;;;-3.56
53412;BMP280;39307;52.870;13.660;2022-12-18T14:34:53;102913.28;;;-3.62
53412;BMP280;39307;52.870;13.660;2022-12-18T14:37:26;102912.09;;;-3.50
53412;BMP280;39307;52.870;13.660;2022-12-18T14:39:56;102909.41;;;-3.46
53412;BMP280;39307;52.870;13.660;2022-12-18T14:42:23;102910.03;;;-3.67
53412;BMP280;39307;52.870;13.660;2022-12-18T14:44:49;102900.94;;;-3.78
53412;BMP280;39307;52.870;13.660;2022-12-18T14:47:15;102887.16;;;-3.73
53412;BMP280;39307;52.870;13.660;2022-12-18T14:49:42;102886.34;;;-3.74
53412;BMP280;39307;52.870;13.660;2022-12-18T14:52:26;102880.38;;;-3.75
53412;BMP280;39307;52.870;13.660;2022-12-18T14:54:54;102891.56;;;-3.77
53412;BMP280;39307;52.870;13.660;2022-12-18T14:57:25;102888.25;;;-3.81
53412;BMP280;39307;52.870;13.660;2022-12-18T15:00:10;102882.38;;;-3.84
53412;BMP280;39307;52.870;13.660;2022-12-18T15:02:42;102888.00;;;-3.72
53412;BMP280;39307;52.870;13.660;2022-12-18T15:05:28;102891.16;;;-3.64
53412;BMP280;39307;52.870;13.660;2022-12-18T15:07:56;102883.06;;;-3.79
53412;BMP280;39307;52.870;13.660;2022-12-18T15:10:28;102890.91;;;-3.85
53412;BMP280;39307;52.870;13.660;2022-12-18T15:20:46;102924.88;;;-3.79
53412;BMP280;39307;52.870;13.660;2022-12-18T15:23:17;102926.16;;;-3.65
53412;BMP280;39307;52.870;13.660;2022-12-18T15:25:45;102923.00;;;-3.74
53412;BMP280;39307;52.870;13.660;2022-12-18T15:28:26;102921.47;;;-3.79
53412;BMP280;39307;52.870;13.660;2022-12-18T15:31:05;102931.09;;;-3.89
53412;BMP280;39307;52.870;13.660;2022-12-18T15:33:43;102925.97;;;-3.87
53412;BMP280;39307;52.870;13.660;2022-12-18T15:36:13;102932.00;;;-3.90
53412;BMP280;39307;52.870;13.660;2022-12-18T15:38:39;102927.75;;;-3.91
53412;BMP280;39307;52.870;13.660;2022-12-18T15:41:18;102928.63;;;-3.92
53412;BMP280;39307;52.870;13.660;2022-12-18T15:43:45;102918.06;;;-3.80